createdAt,value
2023-03-10T00:01:41.181Z,-0.45
2023-03-10T00:06:44.303Z,-0.45
2023-03-10T00:11:47.194Z,-0.43
2023-03-10T00:16:50.099Z,-0.43
2023-03-10T00:21:53.584Z,-0.42
2023-03-10T00:26:56.518Z,-0.42
2023-03-10T00:31:59.936Z,-0.40
2023-03-10T00:37:04.584Z,-0.39
2023-03-10T00:42:08.109Z,-0.39
2023-03-10T00:47:11.474Z,-0.42
2023-03-10T00:52:14.425Z,-0.43
2023-03-10T00:57:18.337Z,-0.45
2023-03-10T01:02:21.464Z,-0.49
2023-03-10T01:07:24.371Z,-0.53
2023-03-10T01:12:27.269Z,-0.55
2023-03-10T01:17:30.174Z,-0.57
2023-03-10T01:22:33.079Z,-0.59
2023-03-10T01:27:35.987Z,-0.60
2023-03-10T01:32:39.698Z,-0.59
2023-03-10T01:37:44.485Z,-0.61
2023-03-10T01:42:47.664Z,-0.62
2023-03-10T01:47:50.568Z,-0.63
2023-03-10T01:52:58.531Z,-0.65
2023-03-10T01:58:03.131Z,-0.68
2023-03-10T02:03:27.126Z,-0.68
2023-03-10T02:08:34.229Z,-0.70
2023-03-10T02:13:37.139Z,-0.72
2023-03-10T02:18:43.730Z,-0.74
2023-03-10T02:24:01.385Z,-0.76
2023-03-10T02:29:09.814Z,-0.79
2023-03-10T02:34:13.984Z,-0.84
2023-03-10T02:39:16.956Z,-0.90
2023-03-10T02:44:22.210Z,-0.94
2023-03-10T02:49:25.934Z,-0.99
2023-03-10T02:54:28.838Z,-1.03
2023-03-10T02:59:31.741Z,-1.07
2023-03-10T03:04:34.645Z,-1.11
2023-03-10T03:09:37.492Z,-1.13
2023-03-10T03:14:40.328Z,-1.15
2023-03-10T03:19:43.254Z,-1.14
2023-03-10T03:24:46.154Z,-1.13
2023-03-10T03:29:49.060Z,-1.14
2023-03-10T03:34:51.961Z,-1.15
2023-03-10T03:39:55.601Z,-1.17
2023-03-10T03:44:58.691Z,-1.20
2023-03-10T03:50:02.287Z,-1.22
2023-03-10T03:55:06.562Z,-1.23
2023-03-10T04:00:13.140Z,-1.28
2023-03-10T04:05:16.451Z,-1.31
2023-03-10T04:10:23.872Z,-1.35
2023-03-10T04:15:27.212Z,-1.36
2023-03-10T04:20:30.188Z,-1.37
2023-03-10T04:25:33.291Z,-1.38
2023-03-10T04:30:36.199Z,-1.39
2023-03-10T04:35:44.245Z,-1.41
2023-03-10T04:40:54.172Z,-1.41
2023-03-10T04:45:57.427Z,-1.41
2023-03-10T04:51:09.289Z,-1.42
2023-03-10T04:56:12.436Z,-1.43
2023-03-10T05:01:16.194Z,-1.46
2023-03-10T05:06:21.602Z,-1.47
2023-03-10T05:11:24.521Z,-1.48
2023-03-10T05:16:28.027Z,-1.49
2023-03-10T05:21:31.142Z,-1.51
2023-03-10T05:26:34.956Z,-1.53
2023-03-10T05:31:38.252Z,-1.54
2023-03-10T05:36:42.082Z,-1.53
2023-03-10T05:41:44.904Z,-1.51
2023-03-10T05:46:47.795Z,-1.46
2023-03-10T05:51:51.238Z,-1.42
2023-03-10T05:56:54.244Z,-1.38
2023-03-10T06:01:57.245Z,-1.37
2023-03-10T06:07:01.239Z,-1.33
2023-03-10T06:12:04.831Z,-1.29
2023-03-10T06:17:07.695Z,-1.24
2023-03-10T06:22:10.597Z,-1.19
2023-03-10T06:27:13.502Z,-1.14
2023-03-10T06:32:16.856Z,-1.05
2023-03-10T06:37:19.828Z,-1.01
2023-03-10T06:42:22.730Z,-1.00
2023-03-10T06:47:25.681Z,-0.97
2023-03-10T06:52:28.644Z,-0.93
2023-03-10T06:57:31.555Z,-0.90
2023-03-10T07:02:34.453Z,-0.85
2023-03-10T07:07:37.459Z,-0.74
2023-03-10T07:12:40.356Z,-0.69
2023-03-10T07:17:43.260Z,-0.64
2023-03-10T07:22:46.164Z,-0.58
2023-03-10T07:27:49.783Z,-0.50
2023-03-10T07:32:54.503Z,-0.44
2023-03-10T07:37:57.462Z,-0.33
2023-03-10T07:43:00.444Z,-0.22
2023-03-10T07:48:03.410Z,-0.13
2023-03-10T07:53:06.455Z,-0.05
2023-03-10T07:58:09.367Z,0.02
2023-03-10T08:03:12.572Z,0.11
2023-03-10T08:08:15.686Z,0.16
2023-03-10T08:13:18.717Z,0.15
2023-03-10T08:18:23.548Z,0.20
2023-03-10T08:23:26.445Z,0.34
2023-03-10T08:28:30.781Z,0.51
2023-03-10T08:33:34.093Z,0.67
2023-03-10T08:38:37.610Z,0.81
2023-03-10T08:43:40.831Z,0.86
2023-03-10T08:48:43.942Z,0.92
2023-03-10T08:53:49.305Z,0.98
2023-03-10T08:58:57.430Z,0.98
2023-03-10T09:04:01.654Z,0.93
2023-03-10T09:09:06.510Z,0.88
2023-03-10T09:14:12.075Z,0.86
2023-03-10T09:19:15.076Z,0.77
2023-03-10T09:24:19.523Z,0.92
2023-03-10T09:29:40.312Z,1.14
2023-03-10T09:34:45.801Z,1.34
2023-03-10T09:39:48.711Z,1.63
2023-03-10T09:45:10.970Z,1.83
2023-03-10T09:50:34.056Z,2.15
2023-03-10T09:55:47.469Z,2.56
2023-03-10T10:00:51.645Z,2.70
2023-03-10T10:05:56.077Z,2.65
2023-03-10T10:11:00.556Z,2.35
2023-03-10T10:16:34.711Z,2.03
2023-03-10T10:22:12.059Z,1.92
2023-03-10T10:27:18.728Z,2.01
2023-03-10T10:32:23.168Z,2.04
2023-03-10T10:37:34.008Z,1.88
2023-03-10T10:42:38.728Z,1.73
2023-03-10T10:47:50.539Z,1.72
2023-03-10T10:53:16.792Z,1.87
2023-03-10T10:58:28.600Z,2.00
2023-03-10T11:03:37.646Z,2.06
2023-03-10T11:08:43.120Z,2.16
2023-03-10T11:14:26.575Z,2.26
2023-03-10T11:19:35.417Z,2.28
2023-03-10T11:24:43.244Z,2.37
2023-03-10T11:29:59.404Z,2.81
2023-03-10T11:35:15.773Z,3.12
2023-03-10T11:40:49.919Z,3.01
2023-03-10T11:45:55.467Z,2.89
2023-03-10T11:51:04.363Z,2.77
2023-03-10T11:56:11.224Z,2.71
2023-03-10T12:01:42.495Z,2.80
2023-03-10T12:06:53.690Z,2.91
2023-03-10T12:11:57.634Z,2.90
2023-03-10T12:17:02.876Z,2.80
2023-03-10T12:22:21.441Z,2.66
2023-03-10T12:27:24.552Z,2.74
2023-03-10T12:32:47.847Z,3.02
2023-03-10T12:38:29.546Z,3.32
2023-03-10T12:43:38.916Z,3.67
2023-03-10T12:48:50.455Z,3.78
2023-03-10T12:54:16.566Z,3.81
2023-03-10T12:59:37.086Z,4.00
2023-03-10T13:04:42.557Z,3.98
2023-03-10T13:09:49.095Z,3.85
2023-03-10T13:14:56.340Z,3.71
2023-03-10T13:20:05.813Z,3.65
2023-03-10T13:25:14.491Z,3.50
2023-03-10T13:30:21.536Z,3.38
2023-03-10T13:35:31.689Z,3.28
2023-03-10T13:40:35.271Z,3.10
2023-03-10T13:45:38.284Z,2.96
2023-03-10T13:50:41.242Z,2.84
2023-03-10T13:55:44.354Z,2.83
2023-03-10T14:00:50.720Z,2.83
2023-03-10T14:05:54.257Z,2.96
2023-03-10T14:11:32.589Z,3.18
2023-03-10T14:16:59.431Z,3.42
2023-03-10T14:22:02.557Z,3.48
2023-03-10T14:27:10.378Z,3.46
2023-03-10T14:32:13.868Z,3.44
2023-03-10T14:37:17.624Z,3.44
2023-03-10T14:42:29.125Z,3.48
2023-03-10T14:47:32.322Z,3.37
2023-03-10T14:52:35.454Z,3.26
2023-03-10T14:57:40.295Z,3.15
2023-03-10T15:02:43.196Z,3.13
2023-03-10T15:07:47.545Z,3.16
2023-03-10T15:12:53.563Z,3.13
2023-03-10T15:17:56.526Z,2.97
2023-03-10T15:22:59.437Z,2.77
2023-03-10T15:28:02.819Z,2.63
2023-03-10T15:33:05.749Z,2.49
2023-03-10T15:38:10.394Z,2.37
2023-03-10T15:43:14.099Z,2.33
2023-03-10T15:48:17.948Z,2.26
2023-03-10T15:53:20.846Z,2.20
2023-03-10T15:58:24.606Z,2.14
2023-03-10T16:03:27.586Z,2.11
2023-03-10T16:08:37.199Z,2.09
2023-03-10T16:13:40.401Z,2.06
2023-03-10T16:18:43.350Z,2.01
2023-03-10T16:23:46.680Z,1.90
2023-03-10T16:28:54.397Z,1.77
2023-03-10T16:33:57.388Z,1.65
2023-03-10T16:39:00.439Z,1.55
2023-03-10T16:44:05.660Z,1.53
2023-03-10T16:49:14.899Z,1.54
2023-03-10T16:54:22.316Z,1.53
2023-03-10T16:59:25.417Z,1.49
2023-03-10T17:04:28.428Z,1.47
2023-03-10T17:09:31.333Z,1.51
2023-03-10T17:14:34.262Z,1.58
2023-03-10T17:19:37.145Z,1.63
2023-03-10T17:24:40.054Z,1.63
2023-03-10T17:29:42.948Z,1.59
2023-03-10T17:34:52.105Z,1.51
2023-03-10T17:39:55.704Z,1.45
2023-03-10T17:44:58.733Z,1.39
2023-03-10T17:50:02.560Z,1.36
2023-03-10T17:55:06.560Z,1.40
2023-03-10T18:00:11.058Z,1.46
2023-03-10T18:05:14.341Z,1.52
2023-03-10T18:10:17.493Z,1.54
2023-03-10T18:15:20.575Z,1.54
2023-03-10T18:20:24.282Z,1.52
2023-03-10T18:25:27.637Z,1.50
2023-03-10T18:30:30.509Z,1.50
2023-03-10T18:35:34.016Z,1.52
2023-03-10T18:40:36.923Z,1.55
2023-03-10T18:45:40.953Z,1.60
2023-03-10T18:50:43.853Z,1.61
2023-03-10T18:55:47.067Z,1.60
2023-03-10T19:00:50.498Z,1.56
2023-03-10T19:05:54.785Z,1.51
2023-03-10T19:10:59.257Z,1.49
2023-03-10T19:16:09.772Z,1.49
2023-03-10T19:21:13.257Z,1.52
2023-03-10T19:26:16.472Z,1.52
2023-03-10T19:31:19.821Z,1.52
2023-03-10T19:36:26.714Z,1.51
2023-03-10T19:41:29.558Z,1.44
2023-03-10T19:46:32.933Z,1.40
2023-03-10T19:51:36.005Z,1.40
2023-03-10T19:56:39.510Z,1.42
2023-03-10T20:01:44.179Z,1.38
2023-03-10T20:06:47.287Z,1.31
2023-03-10T20:11:50.182Z,1.29
2023-03-10T20:16:53.377Z,1.27
2023-03-10T20:21:56.297Z,1.30
2023-03-10T20:27:00.326Z,1.36
2023-03-10T20:32:04.515Z,1.45
2023-03-10T20:37:07.777Z,1.52
2023-03-10T20:42:10.682Z,1.52
2023-03-10T20:47:13.583Z,1.50
2023-03-10T20:52:16.588Z,1.47
2023-03-10T20:57:19.489Z,1.45
2023-03-10T21:02:22.495Z,1.46
2023-03-10T21:07:25.398Z,1.47
2023-03-10T21:12:28.919Z,1.46
2023-03-10T21:17:32.023Z,1.48
2023-03-10T21:22:36.107Z,1.48
2023-03-10T21:27:38.969Z,1.46
2023-03-10T21:32:42.353Z,1.40
2023-03-10T21:37:49.592Z,1.35
2023-03-10T21:42:52.977Z,1.34
2023-03-10T21:47:56.330Z,1.34
2023-03-10T21:53:00.296Z,1.39
2023-03-10T21:58:05.748Z,1.45
2023-03-10T22:03:08.718Z,1.47
2023-03-10T22:08:11.541Z,1.45
2023-03-10T22:13:14.733Z,1.47
2023-03-10T22:18:17.638Z,1.46
2023-03-10T22:23:21.050Z,1.43
2023-03-10T22:28:23.951Z,1.40
2023-03-10T22:33:26.957Z,1.39
2023-03-10T22:38:29.964Z,1.42
2023-03-10T22:43:32.969Z,1.48
2023-03-10T22:48:35.802Z,1.51
2023-03-10T22:53:38.893Z,1.46
2023-03-10T22:58:41.985Z,1.47
2023-03-10T23:03:44.894Z,1.54
2023-03-10T23:08:48.715Z,1.60
2023-03-10T23:13:52.038Z,1.56
2023-03-10T23:18:55.045Z,1.54
2023-03-10T23:23:58.046Z,1.52
2023-03-10T23:29:02.919Z,1.56
2023-03-10T23:34:05.899Z,1.62
2023-03-10T23:39:11.571Z,1.64
2023-03-10T23:44:14.485Z,1.64
2023-03-10T23:49:17.581Z,1.66
2023-03-10T23:54:22.538Z,1.66
2023-03-10T23:59:25.652Z,1.64
